sensor_id;sensor_type;location;lat;lon;timestamp;temperature;humidity
19025;DHT22;9645;51.448;6.260;2023-05-10T00:00:15;13.00;99.90
19025;DHT22;9645;51.448;6.260;2023-05-10T00:02:44;13.00;99.90
19025;DHT22;9645;51.448;6.260;2023-05-10T00:05:11;13.10;99.90
19025;DHT22;9645;51.448;6.260;2023-05-10T00:07:38;13.10;99.90
19025;DHT22;9645;51.448;6.260;2023-05-10T00:10:06;13.00;99.90
19025;DHT22;9645;51.448;6.260;2023-05-10T00:12:33;13.00;99.90
19025;DHT22;9645;51.448;6.260;2023-05-10T00:15:00;13.00;99.90
19025;DHT22;9645;51.448;6.260;2023-05-10T00:17:28;13.00;99.90
19025;DHT22;9645;51.448;6.260;2023-05-10T00:19:56;12.90;99.90
19025;DHT22;9645;51.448;6.260;2023-05-10T00:22:23;12.90;99.90
19025;DHT22;9645;51.448;6.260;2023-05-10T00:24:50;12.90;99.90
19025;DHT22;9645;51.448;6.260;2023-05-10T00:27:17;12.90;99.90
19025;DHT22;9645;51.448;6.260;2023-05-10T00:29:44;12.80;99.90
19025;DHT22;9645;51.448;6.260;2023-05-10T00:32:11;12.80;99.90
19025;DHT22;9645;51.448;6.260;2023-05-10T00:34:39;12.80;99.90
19025;DHT22;9645;51.448;6.260;2023-05-10T00:37:07;13.70;99.90
19025;DHT22;9645;51.448;6.260;2023-05-10T00:39:34;12.80;99.90
19025;DHT22;9645;51.448;6.260;2023-05-10T00:42:01;11.90;99.90
19025;DHT22;9645;51.448;6.260;2023-05-10T00:44:29;12.70;99.90
19025;DHT22;9645;51.448;6.260;2023-05-10T00:46:57;12.70;99.90
19025;DHT22;9645;51.448;6.260;2023-05-10T00:49:24;12.80;99.90
19025;DHT22;9645;51.448;6.260;2023-05-10T00:51:51;12.70;99.90
19025;DHT22;9645;51.448;6.260;2023-05-10T00:54:20;12.70;99.90
19025;DHT22;9645;51.448;6.260;2023-05-10T00:56:47;12.70;99.90
19025;DHT22;9645;51.448;6.260;2023-05-10T00:59:15;12.70;99.90
19025;DHT22;9645;51.448;6.260;2023-05-10T01:01:43;12.70;99.90
19025;DHT22;9645;51.448;6.260;2023-05-10T01:04:11;12.70;99.90
19025;DHT22;9645;51.448;6.260;2023-05-10T01:06:39;12.70;99.90
19025;DHT22;9645;51.448;6.260;2023-05-10T01:09:06;12.80;99.90
19025;DHT22;9645;51.448;6.260;2023-05-10T01:11:35;12.80;99.90
19025;DHT22;9645;51.448;6.260;2023-05-10T01:14:02;12.80;99.90
19025;DHT22;9645;51.448;6.260;2023-05-10T01:16:31;12.80;99.90
19025;DHT22;9645;51.448;6.260;2023-05-10T01:18:58;12.80;99.90
19025;DHT22;9645;51.448;6.260;2023-05-10T01:21:32;12.80;99.90
19025;DHT22;9645;51.448;6.260;2023-05-10T01:24:34;12.80;99.90
19025;DHT22;9645;51.448;6.260;2023-05-10T01:27:27;12.80;99.90
19025;DHT22;9645;51.448;6.260;2023-05-10T01:30:20;12.80;99.90
19025;DHT22;9645;51.448;6.260;2023-05-10T01:32:59;12.80;99.90
19025;DHT22;9645;51.448;6.260;2023-05-10T01:35:32;12.70;99.90
19025;DHT22;9645;51.448;6.260;2023-05-10T01:38:11;12.70;99.90
19025;DHT22;9645;51.448;6.260;2023-05-10T01:40:42;12.70;99.90
19025;DHT22;9645;51.448;6.260;2023-05-10T01:43:19;12.70;99.90
19025;DHT22;9645;51.448;6.260;2023-05-10T01:45:53;15.50;99.90
19025;DHT22;9645;51.448;6.260;2023-05-10T01:48:27;12.60;99.90
19025;DHT22;9645;51.448;6.260;2023-05-10T01:50:56;12.60;99.90
19025;DHT22;9645;51.448;6.260;2023-05-10T01:53:23;12.60;99.90
19025;DHT22;9645;51.448;6.260;2023-05-10T01:55:53;12.60;99.90
19025;DHT22;9645;51.448;6.260;2023-05-10T01:58:25;12.60;99.90
19025;DHT22;9645;51.448;6.260;2023-05-10T02:00:54;12.60;99.90
19025;DHT22;9645;51.448;6.260;2023-05-10T02:03:24;12.60;99.90
19025;DHT22;9645;51.448;6.260;2023-05-10T02:05:54;12.70;99.90
19025;DHT22;9645;51.448;6.260;2023-05-10T02:08:22;12.60;99.90
19025;DHT22;9645;51.448;6.260;2023-05-10T02:10:52;12.70;99.90
19025;DHT22;9645;51.448;6.260;2023-05-10T02:13:21;12.60;99.90
19025;DHT22;9645;51.448;6.260;2023-05-10T02:15:50;12.60;99.90
19025;DHT22;9645;51.448;6.260;2023-05-10T02:18:18;12.50;99.90
19025;DHT22;9645;51.448;6.260;2023-05-10T02:20:47;12.60;99.90
19025;DHT22;9645;51.448;6.260;2023-05-10T02:23:16;12.60;99.90
19025;DHT22;9645;51.448;6.260;2023-05-10T02:25:45;12.60;99.90
19025;DHT22;9645;51.448;6.260;2023-05-10T02:28:14;12.60;99.90
19025;DHT22;9645;51.448;6.260;2023-05-10T02:30:42;12.60;99.90
19025;DHT22;9645;51.448;6.260;2023-05-10T02:33:09;12.60;99.90
19025;DHT22;9645;51.448;6.260;2023-05-10T02:35:38;12.50;99.90
19025;DHT22;9645;51.448;6.260;2023-05-10T02:38:07;12.50;99.90
19025;DHT22;9645;51.448;6.260;2023-05-10T02:40:36;12.40;99.90
19025;DHT22;9645;51.448;6.260;2023-05-10T02:43:04;12.40;99.90
19025;DHT22;9645;51.448;6.260;2023-05-10T02:45:35;12.40;99.90
19025;DHT22;9645;51.448;6.260;2023-05-10T02:48:04;12.40;99.90
19025;DHT22;9645;51.448;6.260;2023-05-10T02:50:33;12.50;99.90
19025;DHT22;9645;51.448;6.260;2023-05-10T02:53:05;12.50;99.90
19025;DHT22;9645;51.448;6.260;2023-05-10T02:55:40;12.50;99.90
19025;DHT22;9645;51.448;6.260;2023-05-10T02:58:07;11.40;99.90
19025;DHT22;9645;51.448;6.260;2023-05-10T03:00:34;12.60;99.90
19025;DHT22;9645;51.448;6.260;2023-05-10T03:03:02;12.60;99.90
19025;DHT22;9645;51.448;6.260;2023-05-10T03:05:29;12.60;99.90
19025;DHT22;9645;51.448;6.260;2023-05-10T03:07:56;12.70;99.90
19025;DHT22;9645;51.448;6.260;2023-05-10T03:10:27;12.60;99.90
19025;DHT22;9645;51.448;6.260;2023-05-10T03:13:10;12.60;99.90
19025;DHT22;9645;51.448;6.260;2023-05-10T03:15:47;12.70;99.90
19025;DHT22;9645;51.448;6.260;2023-05-10T03:18:18;12.70;99.90
19025;DHT22;9645;51.448;6.260;2023-05-10T03:20:49;12.70;99.90
19025;DHT22;9645;51.448;6.260;2023-05-10T03:23:22;12.70;99.90
19025;DHT22;9645;51.448;6.260;2023-05-10T03:25:50;12.70;99.90
19025;DHT22;9645;51.448;6.260;2023-05-10T03:28:21;12.80;99.90
19025;DHT22;9645;51.448;6.260;2023-05-10T03:30:49;12.80;99.90
19025;DHT22;9645;51.448;6.260;2023-05-10T03:33:16;12.80;99.90
19025;DHT22;9645;51.448;6.260;2023-05-10T03:35:43;12.80;99.90
19025;DHT22;9645;51.448;6.260;2023-05-10T03:38:11;12.90;99.90
19025;DHT22;9645;51.448;6.260;2023-05-10T03:40:38;12.90;99.90
19025;DHT22;9645;51.448;6.260;2023-05-10T03:43:05;12.90;99.90
19025;DHT22;9645;51.448;6.260;2023-05-10T03:45:34;12.90;99.90
19025;DHT22;9645;51.448;6.260;2023-05-10T03:48:01;12.90;99.90
19025;DHT22;9645;51.448;6.260;2023-05-10T03:50:28;12.90;99.90
19025;DHT22;9645;51.448;6.260;2023-05-10T03:52:55;12.90;99.90
19025;DHT22;9645;51.448;6.260;2023-05-10T03:55:22;12.90;99.90
19025;DHT22;9645;51.448;6.260;2023-05-10T03:57:49;12.90;99.90
19025;DHT22;9645;51.448;6.260;2023-05-10T04:00:16;12.90;99.90
19025;DHT22;9645;51.448;6.260;2023-05-10T04:02:45;12.90;99.90
19025;DHT22;9645;51.448;6.260;2023-05-10T04:05:12;12.90;99.90
19025;DHT22;9645;51.448;6.260;2023-05-10T04:07:39;12.90;99.90
19025;DHT22;9645;51.448;6.260;2023-05-10T04:10:07;12.90;99.90
19025;DHT22;9645;51.448;6.260;2023-05-10T04:12:34;12.90;99.90
19025;DHT22;9645;51.448;6.260;2023-05-10T04:15:01;12.90;99.90
19025;DHT22;9645;51.448;6.260;2023-05-10T04:17:27;12.90;99.90
19025;DHT22;9645;51.448;6.260;2023-05-10T04:19:56;12.90;99.90
19025;DHT22;9645;51.448;6.260;2023-05-10T04:22:23;12.90;99.90
19025;DHT22;9645;51.448;6.260;2023-05-10T04:24:50;12.90;99.90
19025;DHT22;9645;51.448;6.260;2023-05-10T04:27:17;12.90;99.90
19025;DHT22;9645;51.448;6.260;2023-05-10T04:29:44;12.90;99.90
19025;DHT22;9645;51.448;6.260;2023-05-10T04:32:11;12.90;99.90
19025;DHT22;9645;51.448;6.260;2023-05-10T04:34:37;12.90;99.90
19025;DHT22;9645;51.448;6.260;2023-05-10T04:37:06;12.90;99.90
19025;DHT22;9645;51.448;6.260;2023-05-10T04:39:33;12.90;99.90
19025;DHT22;9645;51.448;6.260;2023-05-10T04:42:00;12.90;99.90
19025;DHT22;9645;51.448;6.260;2023-05-10T04:44:28;12.90;99.90
19025;DHT22;9645;51.448;6.260;2023-05-10T04:46:55;12.90;99.90
19025;DHT22;9645;51.448;6.260;2023-05-10T04:49:22;12.90;99.90
19025;DHT22;9645;51.448;6.260;2023-05-10T04:51:49;12.90;99.90
19025;DHT22;9645;51.448;6.260;2023-05-10T04:54:17;12.90;99.90
19025;DHT22;9645;51.448;6.260;2023-05-10T04:56:44;12.90;99.90
19025;DHT22;9645;51.448;6.260;2023-05-10T04:59:11;12.90;99.90
19025;DHT22;9645;51.448;6.260;2023-05-10T05:01:38;12.90;99.90
19025;DHT22;9645;51.448;6.260;2023-05-10T05:04:05;12.90;99.90
19025;DHT22;9645;51.448;6.260;2023-05-10T05:06:33;12.80;99.90
19025;DHT22;9645;51.448;6.260;2023-05-10T05:09:00;12.90;99.90
19025;DHT22;9645;51.448;6.260;2023-05-10T05:11:28;12.90;99.90
19025;DHT22;9645;51.448;6.260;2023-05-10T05:13:55;12.90;99.90
19025;DHT22;9645;51.448;6.260;2023-05-10T05:16:24;12.90;99.90
19025;DHT22;9645;51.448;6.260;2023-05-10T05:18:51;12.90;99.90
19025;DHT22;9645;51.448;6.260;2023-05-10T05:21:19;12.90;99.90
19025;DHT22;9645;51.448;6.260;2023-05-10T05:23:46;12.90;99.90
19025;DHT22;9645;51.448;6.260;2023-05-10T05:26:13;12.90;99.90
19025;DHT22;9645;51.448;6.260;2023-05-10T05:28:42;13.00;99.90
19025;DHT22;9645;51.448;6.260;2023-05-10T05:31:09;12.90;99.90
19025;DHT22;9645;51.448;6.260;2023-05-10T05:33:36;13.00;99.90
19025;DHT22;9645;51.448;6.260;2023-05-10T05:36:04;13.00;99.90
19025;DHT22;9645;51.448;6.260;2023-05-10T05:38:31;13.00;99.90
19025;DHT22;9645;51.448;6.260;2023-05-10T05:40:58;11.70;99.90
19025;DHT22;9645;51.448;6.260;2023-05-10T05:43:25;13.10;99.90
19025;DHT22;9645;51.448;6.260;2023-05-10T05:45:54;13.10;99.90
19025;DHT22;9645;51.448;6.260;2023-05-10T05:48:23;13.10;99.90
19025;DHT22;9645;51.448;6.260;2023-05-10T05:50:50;13.10;99.90
19025;DHT22;9645;51.448;6.260;2023-05-10T05:53:20;12.20;99.90
19025;DHT22;9645;51.448;6.260;2023-05-10T05:55:53;13.10;99.90
19025;DHT22;9645;51.448;6.260;2023-05-10T05:58:21;13.10;99.90
19025;DHT22;9645;51.448;6.260;2023-05-10T06:00:48;13.10;99.90
19025;DHT22;9645;51.448;6.260;2023-05-10T06:03:19;13.10;99.90
19025;DHT22;9645;51.448;6.260;2023-05-10T06:05:46;13.10;99.90
19025;DHT22;9645;51.448;6.260;2023-05-10T06:08:13;13.10;99.90
19025;DHT22;9645;51.448;6.260;2023-05-10T06:10:40;13.20;99.90
19025;DHT22;9645;51.448;6.260;2023-05-10T06:13:07;13.20;99.90
19025;DHT22;9645;51.448;6.260;2023-05-10T06:15:34;13.20;99.90
19025;DHT22;9645;51.448;6.260;2023-05-10T06:18:01;13.30;99.90
19025;DHT22;9645;51.448;6.260;2023-05-10T06:20:29;13.30;99.90
19025;DHT22;9645;51.448;6.260;2023-05-10T06:22:57;13.30;99.90
19025;DHT22;9645;51.448;6.260;2023-05-10T06:25:24;13.30;99.90
19025;DHT22;9645;51.448;6.260;2023-05-10T06:27:51;13.40;99.90
19025;DHT22;9645;51.448;6.260;2023-05-10T06:30:23;13.40;99.90
19025;DHT22;9645;51.448;6.260;2023-05-10T06:32:53;13.50;99.90
19025;DHT22;9645;51.448;6.260;2023-05-10T06:35:20;13.50;99.90
19025;DHT22;9645;51.448;6.260;2023-05-10T06:37:49;13.60;99.90
19025;DHT22;9645;51.448;6.260;2023-05-10T06:40:16;13.60;99.90
19025;DHT22;9645;51.448;6.260;2023-05-10T06:42:43;13.60;99.90
19025;DHT22;9645;51.448;6.260;2023-05-10T06:45:12;13.50;99.90
19025;DHT22;9645;51.448;6.260;2023-05-10T06:47:39;13.50;99.90
19025;DHT22;9645;51.448;6.260;2023-05-10T06:50:07;13.40;99.90
19025;DHT22;9645;51.448;6.260;2023-05-10T06:52:35;13.40;99.90
19025;DHT22;9645;51.448;6.260;2023-05-10T06:55:04;13.30;99.90
19025;DHT22;9645;51.448;6.260;2023-05-10T06:57:32;13.30;99.90
19025;DHT22;9645;51.448;6.260;2023-05-10T07:00:03;13.30;99.90
19025;DHT22;9645;51.448;6.260;2023-05-10T07:02:30;13.30;99.90
19025;DHT22;9645;51.448;6.260;2023-05-10T07:04:58;13.30;99.90
19025;DHT22;9645;51.448;6.260;2023-05-10T07:07:25;13.30;99.90
19025;DHT22;9645;51.448;6.260;2023-05-10T07:09:52;13.30;99.90
19025;DHT22;9645;51.448;6.260;2023-05-10T07:12:22;13.30;99.90
19025;DHT22;9645;51.448;6.260;2023-05-10T07:14:50;13.30;99.90
19025;DHT22;9645;51.448;6.260;2023-05-10T07:17:17;13.40;99.90
19025;DHT22;9645;51.448;6.260;2023-05-10T07:19:44;13.40;99.90
19025;DHT22;9645;51.448;6.260;2023-05-10T07:22:12;13.50;99.90
19025;DHT22;9645;51.448;6.260;2023-05-10T07:24:39;13.60;99.90
19025;DHT22;9645;51.448;6.260;2023-05-10T07:27:07;13.60;99.90
19025;DHT22;9645;51.448;6.260;2023-05-10T07:29:36;13.60;99.90
19025;DHT22;9645;51.448;6.260;2023-05-10T07:32:03;13.70;99.90
19025;DHT22;9645;51.448;6.260;2023-05-10T07:34:31;13.80;99.90
19025;DHT22;9645;51.448;6.260;2023-05-10T07:36:58;13.90;99.90
19025;DHT22;9645;51.448;6.260;2023-05-10T07:39:26;14.10;99.90
19025;DHT22;9645;51.448;6.260;2023-05-10T07:41:53;14.50;99.90
19025;DHT22;9645;51.448;6.260;2023-05-10T07:44:23;15.00;99.90
19025;DHT22;9645;51.448;6.260;2023-05-10T07:46:52;15.60;99.90
19025;DHT22;9645;51.448;6.260;2023-05-10T07:49:19;16.10;99.90
19025;DHT22;9645;51.448;6.260;2023-05-10T07:51:46;16.50;99.90
19025;DHT22;9645;51.448;6.260;2023-05-10T07:54:14;16.80;99.90
19025;DHT22;9645;51.448;6.260;2023-05-10T07:56:41;16.90;99.90
19025;DHT22;9645;51.448;6.260;2023-05-10T07:59:15;16.90;99.90
19025;DHT22;9645;51.448;6.260;2023-05-10T08:01:44;16.80;99.90
19025;DHT22;9645;51.448;6.260;2023-05-10T08:04:12;16.60;99.90
19025;DHT22;9645;51.448;6.260;2023-05-10T08:06:40;16.40;99.90
19025;DHT22;9645;51.448;6.260;2023-05-10T08:09:10;16.20;99.90
19025;DHT22;9645;51.448;6.260;2023-05-10T08:11:37;16.00;99.90
19025;DHT22;9645;51.448;6.260;2023-05-10T08:14:04;16.00;99.90
19025;DHT22;9645;51.448;6.260;2023-05-10T08:16:31;16.00;99.90
19025;DHT22;9645;51.448;6.260;2023-05-10T08:18:59;15.80;99.90
19025;DHT22;9645;51.448;6.260;2023-05-10T08:21:28;15.80;99.90
19025;DHT22;9645;51.448;6.260;2023-05-10T08:23:56;15.70;99.90
19025;DHT22;9645;51.448;6.260;2023-05-10T08:26:23;15.60;99.90
19025;DHT22;9645;51.448;6.260;2023-05-10T08:28:50;15.50;99.90
19025;DHT22;9645;51.448;6.260;2023-05-10T08:31:17;15.40;99.90
19025;DHT22;9645;51.448;6.260;2023-05-10T08:33:44;15.20;99.90
19025;DHT22;9645;51.448;6.260;2023-05-10T08:36:11;15.10;99.90
19025;DHT22;9645;51.448;6.260;2023-05-10T08:38:46;15.00;99.90
19025;DHT22;9645;51.448;6.260;2023-05-10T08:41:13;14.90;99.90
19025;DHT22;9645;51.448;6.260;2023-05-10T08:43:41;14.90;99.90
19025;DHT22;9645;51.448;6.260;2023-05-10T08:46:15;14.80;99.90
19025;DHT22;9645;51.448;6.260;2023-05-10T08:48:43;14.70;99.90
19025;DHT22;9645;51.448;6.260;2023-05-10T08:51:13;14.70;99.90
19025;DHT22;9645;51.448;6.260;2023-05-10T08:53:40;14.80;99.90
19025;DHT22;9645;51.448;6.260;2023-05-10T08:56:09;14.80;99.90
19025;DHT22;9645;51.448;6.260;2023-05-10T08:58:36;14.80;99.90
19025;DHT22;9645;51.448;6.260;2023-05-10T09:01:03;14.70;99.90
19025;DHT22;9645;51.448;6.260;2023-05-10T09:03:31;14.80;99.90
19025;DHT22;9645;51.448;6.260;2023-05-10T09:06:00;14.80;99.90
19025;DHT22;9645;51.448;6.260;2023-05-10T09:08:27;14.80;99.90
19025;DHT22;9645;51.448;6.260;2023-05-10T09:10:56;14.80;99.90
19025;DHT22;9645;51.448;6.260;2023-05-10T09:13:25;14.70;99.90
19025;DHT22;9645;51.448;6.260;2023-05-10T09:15:52;14.70;99.90
19025;DHT22;9645;51.448;6.260;2023-05-10T09:18:19;14.60;99.90
19025;DHT22;9645;51.448;6.260;2023-05-10T09:20:46;14.60;99.90
19025;DHT22;9645;51.448;6.260;2023-05-10T09:23:13;14.60;99.90
19025;DHT22;9645;51.448;6.260;2023-05-10T09:25:41;14.70;99.90
19025;DHT22;9645;51.448;6.260;2023-05-10T09:28:09;15.50;99.90
19025;DHT22;9645;51.448;6.260;2023-05-10T09:30:37;14.80;99.90
19025;DHT22;9645;51.448;6.260;2023-05-10T09:33:04;14.80;99.90
19025;DHT22;9645;51.448;6.260;2023-05-10T09:35:32;14.80;99.90
19025;DHT22;9645;51.448;6.260;2023-05-10T09:38:02;14.90;99.90
19025;DHT22;9645;51.448;6.260;2023-05-10T09:40:30;14.90;99.90
19025;DHT22;9645;51.448;6.260;2023-05-10T09:42:58;14.90;99.90
19025;DHT22;9645;51.448;6.260;2023-05-10T09:45:26;14.90;99.90
19025;DHT22;9645;51.448;6.260;2023-05-10T09:47:55;14.90;99.90
19025;DHT22;9645;51.448;6.260;2023-05-10T09:50:23;15.00;99.90
19025;DHT22;9645;51.448;6.260;2023-05-10T09:52:52;15.00;99.90
19025;DHT22;9645;51.448;6.260;2023-05-10T09:55:20;15.10;99.90
19025;DHT22;9645;51.448;6.260;2023-05-10T09:57:48;15.10;99.90
19025;DHT22;9645;51.448;6.260;2023-05-10T10:00:17;15.20;99.90
19025;DHT22;9645;51.448;6.260;2023-05-10T10:02:46;15.20;99.90
19025;DHT22;9645;51.448;6.260;2023-05-10T10:05:15;15.20;99.90
19025;DHT22;9645;51.448;6.260;2023-05-10T10:10:10;15.00;99.90
19025;DHT22;9645;51.448;6.260;2023-05-10T10:12:40;15.20;99.90
19025;DHT22;9645;51.448;6.260;2023-05-10T10:15:08;15.10;99.90
19025;DHT22;9645;51.448;6.260;2023-05-10T10:17:36;15.10;99.90
19025;DHT22;9645;51.448;6.260;2023-05-10T10:20:05;15.30;99.90
19025;DHT22;9645;51.448;6.260;2023-05-10T10:22:34;15.40;99.90
19025;DHT22;9645;51.448;6.260;2023-05-10T10:25:01;15.50;99.90
19025;DHT22;9645;51.448;6.260;2023-05-10T10:27:45;15.50;99.90
19025;DHT22;9645;51.448;6.260;2023-05-10T10:30:22;15.40;99.90
19025;DHT22;9645;51.448;6.260;2023-05-10T10:33:13;15.20;99.90
19025;DHT22;9645;51.448;6.260;2023-05-10T10:35:46;15.10;99.90
19025;DHT22;9645;51.448;6.260;2023-05-10T10:38:14;15.10;99.90
19025;DHT22;9645;51.448;6.260;2023-05-10T10:40:42;15.10;99.90
19025;DHT22;9645;51.448;6.260;2023-05-10T10:43:22;15.00;99.90
19025;DHT22;9645;51.448;6.260;2023-05-10T10:46:10;15.00;99.90
19025;DHT22;9645;51.448;6.260;2023-05-10T10:53:34;15.30;99.90
19025;DHT22;9645;51.448;6.260;2023-05-10T10:56:07;15.30;99.90
19025;DHT22;9645;51.448;6.260;2023-05-10T10:58:36;15.40;99.90
19025;DHT22;9645;51.448;6.260;2023-05-10T11:01:14;15.40;99.90
19025;DHT22;9645;51.448;6.260;2023-05-10T11:04:16;15.50;99.90
19025;DHT22;9645;51.448;6.260;2023-05-10T11:09:12;15.60;99.90
19025;DHT22;9645;51.448;6.260;2023-05-10T11:11:50;15.80;99.90
19025;DHT22;9645;51.448;6.260;2023-05-10T11:14:21;15.90;99.90
19025;DHT22;9645;51.448;6.260;2023-05-10T11:16:48;15.80;99.90
19025;DHT22;9645;51.448;6.260;2023-05-10T11:19:16;16.10;99.90
19025;DHT22;9645;51.448;6.260;2023-05-10T11:21:47;16.20;99.90
19025;DHT22;9645;51.448;6.260;2023-05-10T11:24:17;16.30;99.90
19025;DHT22;9645;51.448;6.260;2023-05-10T11:26:45;16.60;99.90
19025;DHT22;9645;51.448;6.260;2023-05-10T11:29:13;16.80;99.90
19025;DHT22;9645;51.448;6.260;2023-05-10T11:31:44;17.10;99.90
19025;DHT22;9645;51.448;6.260;2023-05-10T11:34:22;17.30;99.90
19025;DHT22;9645;51.448;6.260;2023-05-10T11:36:51;17.50;99.90
19025;DHT22;9645;51.448;6.260;2023-05-10T11:39:21;17.90;99.90
19025;DHT22;9645;51.448;6.260;2023-05-10T11:41:49;17.90;99.90
19025;DHT22;9645;51.448;6.260;2023-05-10T11:44:16;18.20;99.90
19025;DHT22;9645;51.448;6.260;2023-05-10T11:46:43;18.40;99.90
19025;DHT22;9645;51.448;6.260;2023-05-10T11:49:11;18.60;99.90
19025;DHT22;9645;51.448;6.260;2023-05-10T11:51:39;18.70;99.90
19025;DHT22;9645;51.448;6.260;2023-05-10T11:54:10;18.60;99.90
19025;DHT22;9645;51.448;6.260;2023-05-10T11:56:39;18.60;92.90
19025;DHT22;9645;51.448;6.260;2023-05-10T11:59:07;18.30;99.90
19025;DHT22;9645;51.448;6.260;2023-05-10T12:01:35;18.20;99.90
19025;DHT22;9645;51.448;6.260;2023-05-10T12:06:30;17.70;99.90
19025;DHT22;9645;51.448;6.260;2023-05-10T12:08:58;17.60;99.90
19025;DHT22;9645;51.448;6.260;2023-05-10T12:11:26;17.60;99.90
19025;DHT22;9645;51.448;6.260;2023-05-10T12:13:56;17.50;99.90
19025;DHT22;9645;51.448;6.260;2023-05-10T12:16:24;17.70;99.90
19025;DHT22;9645;51.448;6.260;2023-05-10T12:18:56;17.70;99.90
19025;DHT22;9645;51.448;6.260;2023-05-10T12:21:23;18.00;99.90
19025;DHT22;9645;51.448;6.260;2023-05-10T12:23:52;18.00;99.90
19025;DHT22;9645;51.448;6.260;2023-05-10T12:26:21;17.80;99.90
19025;DHT22;9645;51.448;6.260;2023-05-10T12:28:50;17.50;99.90
19025;DHT22;9645;51.448;6.260;2023-05-10T12:31:18;17.30;99.90
19025;DHT22;9645;51.448;6.260;2023-05-10T12:33:45;17.10;99.90
19025;DHT22;9645;51.448;6.260;2023-05-10T12:36:15;17.00;99.90
19025;DHT22;9645;51.448;6.260;2023-05-10T12:38:44;16.80;99.90
19025;DHT22;9645;51.448;6.260;2023-05-10T12:41:15;16.80;99.90
19025;DHT22;9645;51.448;6.260;2023-05-10T12:46:12;17.20;99.90
19025;DHT22;9645;51.448;6.260;2023-05-10T12:48:42;17.40;99.90
19025;DHT22;9645;51.448;6.260;2023-05-10T12:51:09;17.70;99.90
19025;DHT22;9645;51.448;6.260;2023-05-10T12:53:38;18.00;99.90
19025;DHT22;9645;51.448;6.260;2023-05-10T12:56:06;18.20;99.90
19025;DHT22;9645;51.448;6.260;2023-05-10T12:58:34;18.50;99.90
19025;DHT22;9645;51.448;6.260;2023-05-10T13:01:01;18.80;99.90
19025;DHT22;9645;51.448;6.260;2023-05-10T13:03:28;18.80;99.90
19025;DHT22;9645;51.448;6.260;2023-05-10T13:05:56;18.80;99.90
19025;DHT22;9645;51.448;6.260;2023-05-10T13:08:23;18.80;99.90
19025;DHT22;9645;51.448;6.260;2023-05-10T13:10:50;18.70;99.90
19025;DHT22;9645;51.448;6.260;2023-05-10T13:13:17;18.60;99.90
19025;DHT22;9645;51.448;6.260;2023-05-10T13:15:44;18.40;99.90
19025;DHT22;9645;51.448;6.260;2023-05-10T13:18:11;18.10;99.90
19025;DHT22;9645;51.448;6.260;2023-05-10T13:20:38;18.00;99.90
19025;DHT22;9645;51.448;6.260;2023-05-10T13:23:07;17.80;99.90
19025;DHT22;9645;51.448;6.260;2023-05-10T13:25:34;17.60;99.90
19025;DHT22;9645;51.448;6.260;2023-05-10T13:28:01;17.70;99.90
19025;DHT22;9645;51.448;6.260;2023-05-10T13:30:28;17.80;99.90
19025;DHT22;9645;51.448;6.260;2023-05-10T13:32:55;17.80;99.90
19025;DHT22;9645;51.448;6.260;2023-05-10T13:35:22;18.10;99.90
19025;DHT22;9645;51.448;6.260;2023-05-10T13:40:19;16.50;99.90
19025;DHT22;9645;51.448;6.260;2023-05-10T13:42:46;18.40;99.90
19025;DHT22;9645;51.448;6.260;2023-05-10T13:47:43;18.10;99.90
19025;DHT22;9645;51.448;6.260;2023-05-10T13:52:38;18.20;99.90
19025;DHT22;9645;51.448;6.260;2023-05-10T13:55:07;18.20;99.90
19025;DHT22;9645;51.448;6.260;2023-05-10T13:57:36;18.20;99.90
19025;DHT22;9645;51.448;6.260;2023-05-10T14:00:03;17.90;99.90
19025;DHT22;9645;51.448;6.260;2023-05-10T14:02:31;17.40;99.90
19025;DHT22;9645;51.448;6.260;2023-05-10T14:04:58;16.80;99.90
19025;DHT22;9645;51.448;6.260;2023-05-10T14:09:52;16.00;99.90
19025;DHT22;9645;51.448;6.260;2023-05-10T14:12:19;15.80;99.90
19025;DHT22;9645;51.448;6.260;2023-05-10T14:14:47;15.50;99.90
19025;DHT22;9645;51.448;6.260;2023-05-10T14:22:09;15.00;99.90
19025;DHT22;9645;51.448;6.260;2023-05-10T14:27:03;14.70;99.90
19025;DHT22;9645;51.448;6.260;2023-05-10T14:29:34;14.50;99.90
19025;DHT22;9645;51.448;6.260;2023-05-10T14:32:05;14.40;99.90
19025;DHT22;9645;51.448;6.260;2023-05-10T14:34:33;14.30;99.90
19025;DHT22;9645;51.448;6.260;2023-05-10T14:37:00;14.30;99.90
19025;DHT22;9645;51.448;6.260;2023-05-10T14:39:27;14.30;99.90
19025;DHT22;9645;51.448;6.260;2023-05-10T14:44:22;14.40;99.90
19025;DHT22;9645;51.448;6.260;2023-05-10T14:49:18;14.50;99.90
19025;DHT22;9645;51.448;6.260;2023-05-10T14:54:16;14.70;99.90
19025;DHT22;9645;51.448;6.260;2023-05-10T14:56:43;14.70;99.90
19025;DHT22;9645;51.448;6.260;2023-05-10T14:59:10;14.70;99.90
19025;DHT22;9645;51.448;6.260;2023-05-10T15:01:37;14.70;99.90
19025;DHT22;9645;51.448;6.260;2023-05-10T15:04:06;14.70;99.90
19025;DHT22;9645;51.448;6.260;2023-05-10T15:06:35;14.70;99.90
19025;DHT22;9645;51.448;6.260;2023-05-10T15:09:02;14.80;99.90
19025;DHT22;9645;51.448;6.260;2023-05-10T15:11:29;14.70;99.90
19025;DHT22;9645;51.448;6.260;2023-05-10T15:16:24;14.60;99.90
19025;DHT22;9645;51.448;6.260;2023-05-10T15:21:18;14.50;99.90
19025;DHT22;9645;51.448;6.260;2023-05-10T15:23:46;14.40;99.90
19025;DHT22;9645;51.448;6.260;2023-05-10T15:26:13;14.40;99.90
19025;DHT22;9645;51.448;6.260;2023-05-10T15:28:40;14.30;99.90
19025;DHT22;9645;51.448;6.260;2023-05-10T15:33:36;14.50;99.90
19025;DHT22;9645;51.448;6.260;2023-05-10T15:36:03;14.50;99.90
19025;DHT22;9645;51.448;6.260;2023-05-10T15:41:00;14.50;99.90
19025;DHT22;9645;51.448;6.260;2023-05-10T15:43:27;14.50;99.90
19025;DHT22;9645;51.448;6.260;2023-05-10T15:45:54;14.60;99.90
19025;DHT22;9645;51.448;6.260;2023-05-10T15:48:21;14.80;99.90
19025;DHT22;9645;51.448;6.260;2023-05-10T15:53:16;15.00;99.90
19025;DHT22;9645;51.448;6.260;2023-05-10T15:55:43;15.10;99.90
19025;DHT22;9645;51.448;6.260;2023-05-10T15:58:11;15.30;99.90
19025;DHT22;9645;51.448;6.260;2023-05-10T16:00:38;15.40;99.90
19025;DHT22;9645;51.448;6.260;2023-05-10T16:03:05;15.50;99.90
19025;DHT22;9645;51.448;6.260;2023-05-10T16:05:32;15.60;99.90
19025;DHT22;9645;51.448;6.260;2023-05-10T16:10:31;15.70;99.90
19025;DHT22;9645;51.448;6.260;2023-05-10T16:12:59;15.70;99.90
19025;DHT22;9645;51.448;6.260;2023-05-10T16:15:28;15.60;99.90
19025;DHT22;9645;51.448;6.260;2023-05-10T16:17:55;15.50;99.90
19025;DHT22;9645;51.448;6.260;2023-05-10T16:20:22;15.40;99.90
19025;DHT22;9645;51.448;6.260;2023-05-10T16:22:49;15.30;99.90
19025;DHT22;9645;51.448;6.260;2023-05-10T16:25:18;15.30;99.90
19025;DHT22;9645;51.448;6.260;2023-05-10T16:27:45;15.20;99.90
19025;DHT22;9645;51.448;6.260;2023-05-10T16:32:41;15.00;99.90
19025;DHT22;9645;51.448;6.260;2023-05-10T16:35:11;14.90;99.90
19025;DHT22;9645;51.448;6.260;2023-05-10T16:37:38;14.80;99.90
19025;DHT22;9645;51.448;6.260;2023-05-10T16:40:07;14.80;99.90
19025;DHT22;9645;51.448;6.260;2023-05-10T16:42:35;14.70;99.90
19025;DHT22;9645;51.448;6.260;2023-05-10T16:45:03;14.70;99.90
19025;DHT22;9645;51.448;6.260;2023-05-10T16:47:34;14.70;99.90
19025;DHT22;9645;51.448;6.260;2023-05-10T16:50:04;14.70;99.90